Time;durP1;ratioP1;P1;durP2;ratioP2;P2;SDS_P1;SDS_P2;PMS_P1;PMS_P2;Temp;Humidity;BMP_temperature;BMP_pressure;BME280_temperature;BME280_humidity;BME280_pressure;Samples;Min_cycle;Max_cycle;Signal;HPM_P1;HPM_P2
2022/05/25 00:01:04;;;;;;;9.63;4.63;;;8.10;99.90;;;;;;4992723;28;20433;-76
2022/05/25 00:03:32;;;;;;;11.23;5.60;;;8.00;99.90;;;;;;4993143;28;20026;-76
2022/05/25 00:05:58;;;;;;;11.75;5.60;;;8.00;99.90;;;;;;4992990;28;20335;-75
2022/05/25 00:08:24;;;;;;;8.73;5.20;;;8.20;99.90;;;;;;4995965;28;20053;-75
2022/05/25 00:10:50;;;;;;;18.92;5.57;;;8.10;99.90;;;;;;4996251;28;20026;-75
2022/05/25 00:13:15;;;;;;;10.45;5.10;;;8.10;99.90;;;;;;4996367;28;20088;-76
2022/05/25 00:15:41;;;;;;;8.98;4.97;;;8.10;99.90;;;;;;4996229;28;20049;-76
2022/05/25 00:18:06;;;;;;;10.43;5.65;;;8.10;99.90;;;;;;4996099;28;20026;-75
2022/05/25 00:20:32;;;;;;;10.07;5.78;;;8.10;99.90;;;;;;4996269;28;20069;-76
2022/05/25 00:22:58;;;;;;;9.95;5.30;;;8.10;99.90;;;;;;4996154;28;20096;-75
2022/05/25 00:25:30;;;;;;;13.07;5.63;;;8.10;99.90;;;;;;4996043;28;20030;-75
2022/05/25 00:28:03;;;;;;;10.00;5.35;;;8.00;99.90;;;;;;4996032;28;20027;-75
2022/05/25 00:30:29;;;;;;;9.48;5.38;;;8.20;99.90;;;;;;4996040;28;20057;-75
2022/05/25 00:32:55;;;;;;;12.68;6.13;;;8.20;99.90;;;;;;4995831;28;20100;-76
2022/05/25 00:35:23;;;;;;;8.73;5.03;;;8.20;99.90;;;;;;4995910;28;20043;-75
2022/05/25 00:37:49;;;;;;;13.18;5.55;;;8.10;99.90;;;;;;4995728;28;20030;-76
2022/05/25 00:40:25;;;;;;;11.00;5.35;;;8.10;99.90;;;;;;4995999;28;20069;-76
2022/05/25 00:42:51;;;;;;;13.82;5.55;;;8.10;99.90;;;;;;4995799;28;20126;-75
2022/05/25 00:45:17;;;;;;;9.20;5.07;;;8.30;99.90;;;;;;4995610;28;20113;-75
2022/05/25 00:47:46;;;;;;;7.93;4.85;;;8.10;99.90;;;;;;4995658;28;20038;-75
2022/05/25 00:50:15;;;;;;;10.60;5.00;;;8.10;99.90;;;;;;4995718;28;20050;-75
2022/05/25 00:52:43;;;;;;;7.35;4.65;;;8.20;99.90;;;;;;4995651;28;20080;-75
2022/05/25 00:55:10;;;;;;;8.35;5.10;;;8.20;99.90;;;;;;4995622;28;20033;-76
2022/05/25 00:57:40;;;;;;;8.30;5.22;;;8.00;99.90;;;;;;4995162;28;20061;-76
2022/05/25 01:00:17;;;;;;;11.43;5.72;;;8.20;99.90;;;;;;4995586;28;20030;-76
2022/05/25 01:02:46;;;;;;;8.40;4.85;;;8.00;99.90;;;;;;4995369;28;20035;-75
2022/05/25 01:05:14;;;;;;;9.98;4.82;;;7.90;99.90;;;;;;4995336;28;20030;-76
2022/05/25 01:07:49;;;;;;;8.68;4.88;;;7.90;99.90;;;;;;4995231;28;20030;-76
2022/05/25 01:10:21;;;;;;;9.02;4.82;;;7.60;99.90;;;;;;4995355;28;20054;-75
2022/05/25 01:13:17;;;;;;;10.48;4.47;;;7.60;99.90;;;;;;4995129;28;20044;-75
2022/05/25 01:16:01;;;;;;;7.22;3.83;;;7.70;99.90;;;;;;4995157;28;20080;-76
2022/05/25 01:18:33;;;;;;;8.32;4.35;;;7.60;99.90;;;;;;4994801;28;20110;-75
2022/05/25 01:21:12;;;;;;;6.93;4.28;;;7.60;99.90;;;;;;4995033;28;20049;-75
2022/05/25 01:23:47;;;;;;;6.45;4.30;;;7.50;99.90;;;;;;4995034;28;20030;-75
2022/05/25 01:26:18;;;;;;;6.80;4.05;;;7.60;99.90;;;;;;4994883;28;20049;-75
2022/05/25 01:29:15;;;;;;;8.10;4.25;;;7.60;99.90;;;;;;4994941;28;20026;-76
2022/05/25 01:32:04;;;;;;;7.13;4.10;;;7.60;99.90;;;;;;4994891;28;20097;-75
2022/05/25 01:35:00;;;;;;;9.02;4.03;;;7.70;99.90;;;;;;4994929;28;20048;-75
2022/05/25 01:37:52;;;;;;;11.00;4.25;;;7.60;99.90;;;;;;4994740;28;20145;-75
2022/05/25 01:40:36;;;;;;;7.70;4.10;;;7.60;99.90;;;;;;4994664;28;20430;-76
2022/05/25 01:43:30;;;;;;;6.80;3.72;;;7.50;99.90;;;;;;4994653;28;20027;-76
2022/05/25 01:46:03;;;;;;;7.93;3.95;;;7.60;99.90;;;;;;4991454;28;20034;-75
2022/05/25 01:48:32;;;;;;;7.68;3.90;;;7.60;99.90;;;;;;4994616;28;20033;-75
2022/05/25 01:51:03;;;;;;;9.03;4.57;;;7.60;99.90;;;;;;4994660;28;20067;-75
2022/05/25 01:53:39;;;;;;;5.25;4.25;;;7.80;99.90;;;;;;4994391;28;20023;-75
2022/05/25 01:56:07;;;;;;;9.40;4.10;;;7.60;99.90;;;;;;4994546;28;20018;-75
2022/05/25 01:58:36;;;;;;;8.95;3.78;;;7.50;99.90;;;;;;4994004;28;20066;-75
2022/05/25 02:01:05;;;;;;;8.18;3.55;;;7.60;99.90;;;;;;4994309;28;20109;-75
2022/05/25 02:06:21;;;;;;;6.13;3.45;;;7.50;99.90;;;;;;4994341;28;20110;-75
2022/05/25 02:08:49;;;;;;;8.57;3.55;;;7.50;99.90;;;;;;4994070;28;20036;-75
2022/05/25 02:11:27;;;;;;;7.40;3.80;;;7.50;99.90;;;;;;4994097;28;20022;-76
2022/05/25 02:14:05;;;;;;;7.40;3.60;;;7.70;99.90;;;;;;4994059;28;20031;-75
2022/05/25 02:17:09;;;;;;;4.70;3.35;;;7.60;99.90;;;;;;4994143;28;20357;-75
2022/05/25 02:19:59;;;;;;;6.70;3.28;;;7.60;99.90;;;;;;4993997;28;20088;-75
2022/05/25 02:22:39;;;;;;;6.63;3.33;;;7.50;99.90;;;;;;4993377;28;20044;-75
2022/05/25 02:25:11;;;;;;;;;;;7.60;99.90;;;;;;4994153;28;20035;-75
2022/05/25 02:27:46;;;;;;;4.97;2.80;;;7.50;99.90;;;;;;4993913;28;19945;-75
2022/05/25 02:30:18;;;;;;;5.35;3.00;;;7.40;99.90;;;;;;4993152;28;20032;-75
2022/05/25 02:32:51;;;;;;;6.22;3.13;;;7.30;99.90;;;;;;4993676;28;20027;-75
2022/05/25 02:35:19;;;;;;;5.50;3.22;;;7.20;99.90;;;;;;4993621;28;20054;-75
2022/05/25 02:37:45;;;;;;;7.07;3.65;;;7.30;99.90;;;;;;4993589;28;20022;-75
2022/05/25 02:40:13;;;;;;;7.32;3.53;;;7.30;99.90;;;;;;4993526;28;20106;-75
2022/05/25 02:42:40;;;;;;;5.97;2.85;;;7.30;99.90;;;;;;4993609;28;20109;-75
2022/05/25 02:45:07;;;;;;;5.60;3.00;;;7.30;99.90;;;;;;4993462;28;20104;-75
2022/05/25 02:47:33;;;;;;;6.78;3.20;;;7.20;99.90;;;;;;4993478;28;20030;-75
2022/05/25 02:49:59;;;;;;;9.50;3.60;;;7.20;99.90;;;;;;4993792;28;20026;-75
2022/05/25 02:52:24;;;;;;;5.28;3.38;;;7.40;99.90;;;;;;4993360;28;20026;-75
2022/05/25 02:54:50;;;;;;;5.15;3.28;;;7.50;99.90;;;;;;4993327;28;20099;-75
2022/05/25 02:57:16;;;;;;;4.75;3.72;;;7.50;99.90;;;;;;4992961;28;20026;-76
2022/05/25 02:59:41;;;;;;;7.45;3.45;;;7.50;99.90;;;;;;4993245;28;20026;-75
2022/05/25 03:02:07;;;;;;;5.57;3.15;;;7.60;99.90;;;;;;4993191;28;20056;-75
2022/05/25 03:04:37;;;;;;;6.65;2.85;;;7.60;99.90;;;;;;4993182;28;20030;-75
2022/05/25 03:07:03;;;;;;;9.38;3.60;;;7.60;99.90;;;;;;4993417;28;20022;-75
2022/05/25 03:09:29;;;;;;;7.45;2.90;;;7.60;99.90;;;;;;4993055;28;20101;-75
2022/05/25 03:11:54;;;;;;;7.15;3.30;;;7.40;99.90;;;;;;4993157;28;20153;-75
2022/05/25 03:14:20;;;;;;;6.10;3.40;;;7.60;99.90;;;;;;4992982;28;20050;-75
2022/05/25 03:16:45;;;;;;;5.80;3.03;;;7.70;99.90;;;;;;4993147;28;20034;-75
2022/05/25 03:19:11;;;;;;;8.07;3.92;;;7.60;99.90;;;;;;4992692;28;20026;-75
2022/05/25 03:21:36;;;;;;;6.22;3.60;;;7.80;99.90;;;;;;4992901;28;20038;-75
2022/05/25 03:24:02;;;;;;;8.13;3.55;;;7.70;99.90;;;;;;4992759;28;20482;-75
2022/05/25 03:26:27;;;;;;;4.97;2.70;;;7.70;99.90;;;;;;4993021;28;20061;-75
2022/05/25 03:28:53;;;;;;;6.65;3.28;;;7.60;99.90;;;;;;4992924;28;20347;-75
2022/05/25 03:31:19;;;;;;;9.73;3.58;;;7.60;99.90;;;;;;4992824;28;20022;-74
2022/05/25 03:33:44;;;;;;;6.05;3.45;;;7.60;99.90;;;;;;4992939;28;20030;-75
2022/05/25 03:36:10;;;;;;;5.57;3.10;;;7.60;99.90;;;;;;4992860;28;20034;-75
2022/05/25 03:38:36;;;;;;;3.90;2.90;;;7.70;99.90;;;;;;4992771;28;20037;-75
2022/05/25 03:41:02;;;;;;;7.18;3.08;;;7.70;99.90;;;;;;4994421;28;20137;-75
2022/05/25 03:43:34;;;;;;;8.23;3.03;;;7.60;99.90;;;;;;4995571;28;20117;-75
2022/05/25 03:45:59;;;;;;;7.45;3.00;;;7.90;99.90;;;;;;4996748;28;20038;-75
2022/05/25 03:48:25;;;;;;;5.82;2.58;;;7.80;99.90;;;;;;4996807;28;20026;-75
2022/05/25 03:50:51;;;;;;;5.15;2.90;;;7.80;99.90;;;;;;4996714;28;20023;-75
2022/05/25 03:53:17;;;;;;;7.78;3.05;;;8.00;99.90;;;;;;4996624;28;20547;-76
2022/05/25 03:55:43;;;;;;;4.30;3.10;;;8.10;99.90;;;;;;4996603;28;20026;-75
2022/05/25 03:58:09;;;;;;;7.30;2.97;;;8.20;99.90;;;;;;4996568;28;20383;-75
2022/05/25 04:00:35;;;;;;;5.72;2.97;;;8.40;99.90;;;;;;4996301;28;20022;-75
2022/05/25 04:03:02;;;;;;;6.03;3.33;;;8.90;99.90;;;;;;4996342;28;20018;-75
2022/05/25 04:05:29;;;;;;;9.27;3.50;;;9.90;99.90;;;;;;4996744;28;20105;-75
2022/05/25 04:07:56;;;;;;;11.95;3.80;;;10.60;99.90;;;;;;4996333;28;20041;-75
2022/05/25 04:10:22;;;;;;;10.00;3.28;;;10.40;99.90;;;;;;4996581;28;20073;-75
2022/05/25 04:12:49;;;;;;;8.60;3.72;;;9.50;99.90;;;;;;4996305;28;20106;-75
2022/05/25 04:15:21;;;;;;;8.07;4.38;;;10.80;99.90;;;;;;4996149;28;20033;-75
2022/05/25 04:17:47;;;;;;;10.25;4.35;;;11.80;99.90;;;;;;4996176;28;20034;-75
2022/05/25 04:20:13;;;;;;;7.15;3.72;;;11.90;99.90;;;;;;4995986;28;20038;-75
2022/05/25 04:22:39;;;;;;;5.45;3.20;;;10.90;99.90;;;;;;4995990;28;20026;-76
2022/05/25 04:25:10;;;;;;;5.97;3.17;;;10.90;99.90;;;;;;4995946;28;20079;-75
2022/05/25 04:27:36;;;;;;;7.80;2.85;;;11.00;99.90;;;;;;4996345;28;20046;-75
2022/05/25 04:30:04;;;;;;;8.57;2.90;;;12.30;99.90;;;;;;4995961;28;20026;-75
2022/05/25 04:32:30;;;;;;;7.03;3.13;;;13.40;99.90;;;;;;4995871;28;20041;-76
2022/05/25 04:34:57;;;;;;;5.35;2.75;;;14.80;99.90;;;;;;4995851;28;20030;-75
2022/05/25 04:40:07;;;;;;;3.92;2.67;;;16.10;99.90;;;;;;4995899;28;20041;-76
2022/05/25 04:42:33;;;;;;;6.68;2.03;;;16.90;99.90;;;;;;4995936;28;20101;-75
2022/05/25 04:45:03;;;;;;;4.55;2.88;;;17.30;1.00;;;;;;4978194;28;20482;-74
2022/05/25 04:47:29;;;;;;;3.85;1.63;;;18.20;1.00;;;;;;4995545;28;20502;-74
2022/05/25 04:49:55;;;;;;;5.22;1.75;;;18.90;1.00;;;;;;4995736;28;20026;-75
2022/05/25 04:52:20;;;;;;;2.58;1.55;;;18.40;99.90;;;;;;4994876;28;20045;-76
2022/05/25 04:54:46;;;;;;;2.92;1.13;;;19.40;1.00;;;;;;4995721;28;20019;-74
2022/05/25 04:57:21;;;;;;;3.75;1.33;;;20.40;99.90;;;;;;4995267;28;20033;-75
2022/05/25 04:59:48;;;;;;;3.45;1.17;;;21.30;99.90;;;;;;4995297;28;20050;-75
2022/05/25 05:02:14;;;;;;;1.95;1.75;;;22.10;99.90;;;;;;4994077;28;20034;-75
2022/05/25 05:04:40;;;;;;;5.07;1.30;;;22.50;99.90;;;;;;4995548;28;20034;-75
2022/05/25 05:07:05;;;;;;;4.22;1.15;;;23.10;99.90;;;;;;4995175;28;20493;-75
2022/05/25 05:09:36;;;;;;;3.00;1.13;;;24.20;99.90;;;;;;4995211;28;20031;-75
2022/05/25 05:12:02;;;;;;;3.70;1.00;;;25.40;99.90;;;;;;4995062;28;20037;-75
2022/05/25 05:14:28;;;;;;;2.65;1.08;;;25.80;99.90;;;;;;4994998;28;20042;-75
2022/05/25 05:16:55;;;;;;;2.55;0.98;;;26.00;99.90;;;;;;4995008;28;20026;-75
2022/05/25 05:19:21;;;;;;;2.42;0.80;;;26.30;99.90;;;;;;4994927;28;20043;-76
2022/05/25 05:21:46;;;;;;;2.25;0.80;;;27.60;99.90;;;;;;4995087;28;20030;-76
2022/05/25 05:24:12;;;;;;;2.63;1.13;;;28.30;99.90;;;;;;4994798;28;20050;-75
2022/05/25 05:26:38;;;;;;;2.78;1.00;;;28.70;99.90;;;;;;4994956;28;20081;-76
2022/05/25 05:29:03;;;;;;;4.45;1.10;;;28.80;99.90;;;;;;4994503;28;20019;-75
2022/05/25 05:31:29;;;;;;;2.03;0.85;;;29.60;99.90;;;;;;4994016;28;20037;-75
2022/05/25 05:33:54;;;;;;;1.58;0.73;;;29.90;99.90;;;;;;4997232;28;20048;-75
2022/05/25 05:36:26;;;;;;;3.13;1.10;;;30.50;99.90;;;;;;4994285;28;20110;-75
2022/05/25 05:39:01;;;;;;;2.95;0.90;;;31.20;99.90;;;;;;4975188;28;20037;-75
2022/05/25 05:41:34;;;;;;;3.25;0.88;;;30.10;99.90;;;;;;4992105;28;20045;-76
2022/05/25 05:44:00;;;;;;;3.20;1.20;;;30.60;99.90;;;;;;5013316;28;20042;-75
2022/05/25 05:46:27;;;;;;;3.97;0.85;;;31.60;99.90;;;;;;5011385;28;20037;-75
2022/05/25 05:48:53;;;;;;;4.75;1.08;;;30.80;99.90;;;;;;5012010;28;20045;-76
2022/05/25 05:51:19;;;;;;;2.05;1.17;;;30.60;99.90;;;;;;4996953;28;20018;-76
2022/05/25 05:53:45;;;;;;;6.75;1.30;;;32.30;99.90;;;;;;5005483;28;20052;-76
2022/05/25 05:56:11;;;;;;;3.45;1.20;;;32.80;99.90;;;;;;5012987;28;20105;-75
2022/05/25 05:58:36;;;;;;;2.97;1.00;;;32.80;99.90;;;;;;5000297;28;20474;-75
2022/05/25 06:01:02;;;;;;;4.00;1.15;;;33.40;99.90;;;;;;4996113;28;20022;-75
2022/05/25 06:03:29;;;;;;;2.40;1.00;;;33.80;99.90;;;;;;4994502;28;20105;-75
2022/05/25 06:05:54;;;;;;;2.45;1.23;;;32.80;99.90;;;;;;5012494;28;20010;-74
2022/05/25 06:08:23;;;;;;;1.98;1.00;;;33.70;99.90;;;;;;5005300;28;20488;-75
2022/05/25 06:10:49;;;;;;;2.30;1.30;;;34.30;99.90;;;;;;5008543;28;20028;-75
2022/05/25 06:13:15;;;;;;;4.25;1.10;;;34.10;99.90;;;;;;5010865;28;20449;-75
2022/05/25 06:21:36;;;;;;;3.03;1.20;;;36.40;99.90;;;;;;4894996;29;20051;-75
2022/05/25 06:24:01;;;;;;;2.20;1.02;;;37.00;99.90;;;;;;4964486;28;20485;-75
2022/05/25 06:26:30;;;;;;;4.18;1.00;;;34.70;99.90;;;;;;4992734;28;20033;-75
2022/05/25 06:28:57;;;;;;;2.85;0.82;;;33.90;99.90;;;;;;5007610;28;20026;-75
2022/05/25 06:31:23;;;;;;;2.50;0.80;;;31.70;99.90;;;;;;5006272;28;20457;-75
2022/05/25 06:33:48;;;;;;;2.83;0.95;;;34.00;99.90;;;;;;4993117;28;20462;-76
2022/05/25 06:36:23;;;;;;;1.98;0.95;;;36.20;99.90;;;;;;4975741;28;20572;-75
2022/05/25 06:38:49;;;;;;;2.80;1.23;;;34.90;99.90;;;;;;4990761;28;20018;-75
2022/05/25 06:41:16;;;;;;;3.05;1.02;;;33.80;99.90;;;;;;5003506;28;20111;-75
2022/05/25 06:43:42;;;;;;;3.35;0.88;;;35.80;99.90;;;;;;5008248;28;20044;-75
2022/05/25 06:46:09;;;;;;;2.92;0.98;;;35.50;99.90;;;;;;4993132;28;20463;-75
2022/05/25 06:48:35;;;;;;;3.15;1.00;;;34.50;99.90;;;;;;4994194;28;20108;-75
2022/05/25 06:51:15;;;;;;;4.70;1.40;;;36.20;99.90;;;;;;4992898;28;20066;-76
2022/05/25 06:53:41;;;;;;;2.50;0.98;;;36.10;99.90;;;;;;4995848;28;20030;-76
2022/05/25 06:56:07;;;;;;;3.40;1.42;;;35.30;99.90;;;;;;5006480;28;20037;-76
2022/05/25 06:58:33;;;;;;;2.47;1.17;;;31.40;99.90;;;;;;4992585;28;20104;-75
2022/05/25 07:00:59;;;;;;;4.35;1.27;;;31.90;99.90;;;;;;4997674;28;20108;-76
2022/05/25 07:03:25;;;;;;;2.05;1.10;;;28.30;99.90;;;;;;4996007;28;20097;-76
2022/05/25 07:05:52;;;;;;;2.90;1.58;;;30.10;99.90;;;;;;5006642;28;20105;-76
2022/05/25 07:08:17;;;;;;;3.40;1.48;;;28.00;99.90;;;;;;5004219;28;20114;-75
2022/05/25 07:10:46;;;;;;;2.20;1.40;;;27.60;99.90;;;;;;4998559;28;20530;-75
2022/05/25 07:13:12;;;;;;;7.38;1.40;;;29.90;99.90;;;;;;4992789;28;20033;-75
2022/05/25 07:15:38;;;;;;;1.40;1.27;;;34.00;99.90;;;;;;4998553;28;20042;-75
2022/05/25 07:18:04;;;;;;;2.63;1.63;;;30.60;99.90;;;;;;5002811;28;20029;-75
2022/05/25 07:20:30;;;;;;;2.05;1.40;;;31.00;99.90;;;;;;5009761;28;20029;-75
2022/05/25 07:22:55;;;;;;;4.03;1.55;;;29.20;99.90;;;;;;5001099;28;20116;-75
2022/05/25 07:25:21;;;;;;;3.45;1.55;;;27.60;99.90;;;;;;4995516;28;20486;-76
2022/05/25 07:27:47;;;;;;;3.30;1.80;;;30.20;99.90;;;;;;5007235;28;20025;-75
2022/05/25 07:30:13;;;;;;;2.15;1.50;;;28.10;99.90;;;;;;5001798;28;20497;-75
2022/05/25 07:32:40;;;;;;;8.38;1.65;;;30.00;99.90;;;;;;5006005;28;20026;-76
2022/05/25 07:35:07;;;;;;;4.53;2.08;;;29.20;99.90;;;;;;4996813;28;20023;-75
2022/05/25 07:37:37;;;;;;;3.55;1.35;;;28.60;99.90;;;;;;4994979;28;20041;-76
2022/05/25 07:40:06;;;;;;;2.47;1.60;;;32.30;99.90;;;;;;4999269;28;20030;-76
2022/05/25 07:42:32;;;;;;;2.40;1.40;;;33.40;99.90;;;;;;5004658;28;20037;-75
2022/05/25 07:45:00;;;;;;;3.78;1.80;;;33.70;99.90;;;;;;4994303;28;20019;-75
2022/05/25 07:47:28;;;;;;;1.77;1.60;;;33.00;99.90;;;;;;5011729;28;20080;-77
2022/05/25 07:49:53;;;;;;;2.80;1.70;;;31.10;99.90;;;;;;4997632;28;20022;-77
2022/05/25 07:52:20;;;;;;;3.72;1.95;;;30.20;99.90;;;;;;5011485;28;20026;-78
2022/05/25 07:54:47;;;;;;;1.80;1.60;;;29.30;99.90;;;;;;4995504;28;20034;-77
2022/05/25 07:57:14;;;;;;;5.03;1.80;;;30.00;99.90;;;;;;5011950;28;20018;-76
2022/05/25 07:59:40;;;;;;;1.90;1.70;;;29.70;99.90;;;;;;5007903;28;20454;-76
2022/05/25 08:07:49;;;;;;;3.25;1.70;;;27.00;99.90;;;;;;4993421;28;20049;-75
2022/05/25 08:10:18;;;;;;;4.72;1.90;;;29.00;99.90;;;;;;5009708;28;20026;-77
2022/05/25 08:12:45;;;;;;;3.60;1.80;;;30.20;99.90;;;;;;4992180;28;20194;-75
2022/05/25 08:15:12;;;;;;;3.53;1.90;;;30.00;99.90;;;;;;4992024;28;20038;-74
2022/05/25 08:17:39;;;;;;;2.22;1.73;;;28.50;99.90;;;;;;4972670;28;20482;-75
2022/05/25 08:20:06;;;;;;;2.10;1.60;;;27.80;99.90;;;;;;4984324;28;20045;-75
2022/05/25 08:22:32;;;;;;;3.05;1.80;;;26.60;99.90;;;;;;5001882;28;20027;-75
2022/05/25 08:24:58;;;;;;;5.47;2.17;;;26.40;99.90;;;;;;5002831;28;20026;-75
2022/05/25 08:27:24;;;;;;;1.80;1.63;;;27.00;99.90;;;;;;4993721;28;20027;-76
2022/05/25 08:29:49;;;;;;;4.10;1.95;;;28.10;99.90;;;;;;5013943;28;20521;-75
2022/05/25 08:32:15;;;;;;;5.03;2.10;;;29.10;99.90;;;;;;5010819;28;20018;-75
2022/05/25 08:34:41;;;;;;;3.88;2.15;;;29.50;99.90;;;;;;5007617;28;20030;-75
2022/05/25 08:37:07;;;;;;;4.57;2.08;;;28.00;99.90;;;;;;4993620;28;20010;-75
2022/05/25 08:39:33;;;;;;;2.95;2.28;;;30.30;99.90;;;;;;5006099;28;20026;-75
2022/05/25 08:42:05;;;;;;;5.65;2.20;;;30.90;99.90;;;;;;5004282;28;20554;-75
2022/05/25 08:44:32;;;;;;;4.05;2.10;;;30.40;99.90;;;;;;4995441;28;20040;-75
2022/05/25 08:47:01;;;;;;;3.60;1.92;;;29.10;99.90;;;;;;5005311;28;20453;-75
2022/05/25 08:49:30;;;;;;;2.83;1.77;;;29.20;99.90;;;;;;4997131;28;20019;-75
2022/05/25 08:51:58;;;;;;;5.00;1.88;;;27.00;99.90;;;;;;4996675;28;20030;-76
2022/05/25 08:54:26;;;;;;;2.05;1.88;;;28.00;99.90;;;;;;5010496;28;20026;-75
2022/05/25 08:57:05;;;;;;;3.83;2.13;;;28.60;99.90;;;;;;4996732;28;20042;-75
2022/05/25 08:59:41;;;;;;;5.90;2.15;;;27.70;99.90;;;;;;4994746;28;20900;-75
2022/05/25 09:02:10;;;;;;;2.85;1.73;;;27.50;99.90;;;;;;4975417;28;20434;-75
2022/05/25 09:05:11;;;;;;;2.95;2.00;;;28.40;99.90;;;;;;4993982;28;20092;-75
2022/05/25 09:07:58;;;;;;;4.10;2.55;;;30.20;99.90;;;;;;4985206;28;20037;-75
2022/05/25 09:10:25;;;;;;;2.70;1.92;;;33.30;99.90;;;;;;5006845;28;20382;-75
2022/05/25 09:12:58;;;;;;;3.55;1.80;;;36.00;99.90;;;;;;5014183;28;20048;-75
2022/05/25 09:15:27;;;;;;;4.85;1.80;;;34.70;99.90;;;;;;5011039;28;20026;-75
2022/05/25 09:18:06;;;;;;;;;;;34.60;99.90;;;;;;5014475;28;20041;-75
2022/05/25 09:20:37;;;;;;;4.00;1.75;;;31.10;99.90;;;;;;5014372;28;20294;-75
2022/05/25 09:23:03;;;;;;;6.15;2.40;;;27.60;99.90;;;;;;5013876;28;20439;-75
2022/05/25 09:25:30;;;;;;;5.53;3.08;;;26.90;99.90;;;;;;5014204;28;20025;-75
2022/05/25 09:28:15;;;;;;;4.90;2.83;;;26.20;99.90;;;;;;5013917;28;20025;-76
2022/05/25 09:30:44;;;;;;;6.93;2.97;;;27.20;99.90;;;;;;5013988;28;20115;-76
2022/05/25 09:33:19;;;;;;;3.85;2.60;;;28.20;99.90;;;;;;5013189;28;20034;-75
2022/05/25 09:35:58;;;;;;;2.70;2.50;;;26.50;99.90;;;;;;5003851;28;20489;-75
2022/05/25 09:38:43;;;;;;;5.97;2.58;;;25.40;99.90;;;;;;4974523;28;20018;-75
2022/05/25 09:41:19;;;;;;;5.35;2.90;;;23.60;99.90;;;;;;4978231;28;20026;-75
2022/05/25 09:43:45;;;;;;;7.85;4.10;;;23.50;99.90;;;;;;4994142;28;20366;-75
2022/05/25 09:46:23;;;;;;;6.25;4.70;;;23.40;99.90;;;;;;4993862;28;20467;-75
2022/05/25 09:48:58;;;;;;;8.88;6.38;;;24.10;99.90;;;;;;4994228;28;20088;-75
2022/05/25 09:51:31;;;;;;;11.50;9.43;;;23.60;99.90;;;;;;5003009;28;20022;-75
2022/05/25 09:54:11;;;;;;;9.20;6.57;;;22.80;99.90;;;;;;4974563;28;20034;-75
2022/05/25 09:56:49;;;;;;;13.15;8.13;;;21.70;99.90;;;;;;4974387;28;20078;-76
2022/05/25 09:59:23;;;;;;;7.32;3.92;;;21.20;99.90;;;;;;4993560;28;20530;-76
2022/05/25 10:01:49;;;;;;;3.15;1.70;;;20.80;99.90;;;;;;4993644;28;20548;-76
2022/05/25 10:04:33;;;;;;;2.75;1.63;;;21.00;99.90;;;;;;4994067;28;20360;-76
2022/05/25 10:06:58;;;;;;;1.77;1.17;;;24.60;99.90;;;;;;4993490;28;20134;-76
2022/05/25 10:09:29;;;;;;;2.35;1.65;;;24.90;99.90;;;;;;4993647;28;20113;-76
2022/05/25 10:11:58;;;;;;;3.13;2.00;;;24.00;99.90;;;;;;4996601;28;20121;-76
2022/05/25 10:14:35;;;;;;;6.30;1.97;;;25.20;99.90;;;;;;4993674;28;20439;-76
2022/05/25 10:17:17;;;;;;;5.43;2.47;;;24.50;99.90;;;;;;5000159;28;20267;-78
2022/05/25 10:19:54;;;;;;;5.10;2.20;;;24.10;99.90;;;;;;4984749;28;20034;-77
2022/05/25 10:22:35;;;;;;;6.15;2.90;;;25.70;99.90;;;;;;4996083;28;20038;-78
2022/05/25 10:25:23;;;;;;;3.17;1.95;;;24.10;99.90;;;;;;4999479;28;20049;-78
2022/05/25 10:27:49;;;;;;;3.67;1.42;;;23.20;99.90;;;;;;4993353;28;20054;-77
2022/05/25 10:39:28;;;;;;;1.95;1.10;;;28.90;99.90;;;;;;4959208;28;20049;-77
2022/05/25 10:42:26;;;;;;;3.17;0.88;;;30.30;99.90;;;;;;4999383;28;20486;-74
2022/05/25 10:45:11;;;;;;;3.10;1.15;;;30.30;99.90;;;;;;4994793;28;20057;-74
2022/05/25 10:48:07;;;;;;;2.28;1.10;;;29.00;99.90;;;;;;5006277;28;20529;-74
2022/05/25 10:50:49;;;;;;;3.20;1.13;;;32.20;99.90;;;;;;5012300;28;20033;-74
2022/05/25 10:53:36;;;;;;;3.50;0.60;;;35.10;99.90;;;;;;5000552;28;20117;-75
2022/05/25 10:56:10;;;;;;;3.83;0.80;;;33.00;99.90;;;;;;5000962;28;20064;-74
2022/05/25 10:59:11;;;;;;;4.97;1.05;;;31.30;99.90;;;;;;5000486;28;20141;-75
2022/05/25 11:02:15;;;;;;;1.33;0.70;;;30.20;99.90;;;;;;4941883;28;20117;-74
2022/05/25 11:05:15;;;;;;;1.42;0.80;;;31.30;99.90;;;;;;4995443;28;20101;-77
2022/05/25 11:07:42;;;;;;;;;;;31.50;99.90;;;;;;4973819;28;20019;-77
2022/05/25 11:10:41;;;;;;;3.42;0.90;;;29.20;99.90;;;;;;4973032;28;20439;-76
2022/05/25 11:13:46;;;;;;;4.95;0.98;;;28.90;99.90;;;;;;4973777;28;20023;-75
2022/05/25 11:16:25;;;;;;;2.30;0.77;;;29.00;99.90;;;;;;4973715;28;20038;-74
2022/05/25 11:19:15;;;;;;;1.70;0.70;;;28.10;99.90;;;;;;4973843;28;20031;-74
2022/05/25 11:21:47;;;;;;;3.15;0.80;;;28.50;99.90;;;;;;4973664;28;20035;-74
2022/05/25 11:24:30;;;;;;;1.23;0.65;;;27.90;99.90;;;;;;4973590;28;20015;-74
2022/05/25 11:27:19;;;;;;;4.20;0.55;;;27.40;99.90;;;;;;4973523;28;20035;-74
2022/05/25 11:30:05;;;;;;;2.07;0.60;;;27.20;99.90;;;;;;4973547;28;20033;-74
2022/05/25 11:32:51;;;;;;;1.75;0.43;;;26.80;99.90;;;;;;4973447;28;20449;-74
2022/05/25 11:35:26;;;;;;;1.88;0.60;;;26.60;99.90;;;;;;4973259;28;20467;-74
2022/05/25 11:38:03;;;;;;;3.28;0.50;;;26.30;99.90;;;;;;4973516;28;20413;-74
2022/05/25 11:40:41;;;;;;;3.10;0.50;;;26.10;99.90;;;;;;4973354;28;20055;-74
2022/05/25 11:43:18;;;;;;;1.52;0.55;;;26.40;99.90;;;;;;4973454;28;20023;-74
2022/05/25 11:45:46;;;;;;;2.55;0.52;;;26.40;99.90;;;;;;4990205;28;20488;-74
2022/05/25 11:48:30;;;;;;;2.42;0.80;;;26.30;99.90;;;;;;4992624;28;20379;-74
2022/05/25 11:51:23;;;;;;;3.65;0.70;;;25.80;99.90;;;;;;4992808;28;20035;-74
2022/05/25 11:54:26;;;;;;;2.20;0.70;;;25.80;99.90;;;;;;4986334;28;20030;-74
2022/05/25 11:57:15;;;;;;;2.58;0.70;;;26.50;99.90;;;;;;4992972;28;20121;-74
2022/05/25 12:00:04;;;;;;;3.58;0.60;;;25.90;99.90;;;;;;4992501;28;20165;-74
2022/05/25 12:02:55;;;;;;;1.17;0.45;;;25.80;99.90;;;;;;4993513;28;20033;-76
2022/05/25 12:05:45;;;;;;;5.13;0.68;;;25.80;99.90;;;;;;4996446;28;20386;-76
2022/05/25 12:08:40;;;;;;;3.25;0.60;;;25.30;99.90;;;;;;4996130;28;20022;-76
2022/05/25 12:11:27;;;;;;;3.13;0.88;;;25.70;99.90;;;;;;4996345;28;20030;-76
2022/05/25 12:14:17;;;;;;;3.72;0.60;;;25.50;99.90;;;;;;4996167;28;20034;-76
2022/05/25 12:16:44;;;;;;;3.20;1.02;;;25.40;99.90;;;;;;4996231;28;20367;-76
2022/05/25 12:19:21;;;;;;;3.15;0.70;;;24.50;99.90;;;;;;4996208;28;20365;-76
2022/05/25 12:22:01;;;;;;;1.95;0.60;;;24.70;99.90;;;;;;4996221;28;20359;-76
2022/05/25 12:24:31;;;;;;;;;;;24.90;99.90;;;;;;4976905;28;20031;-74
2022/05/25 12:27:00;;;;;;;4.75;0.73;;;24.50;99.90;;;;;;4976545;28;19906;-74
2022/05/25 12:29:40;;;;;;;2.45;0.70;;;24.20;99.90;;;;;;4976514;28;20027;-76
2022/05/25 12:32:07;;;;;;;3.28;0.63;;;24.40;99.90;;;;;;4976516;28;20038;-76
2022/05/25 12:34:43;;;;;;;5.38;0.80;;;24.20;99.90;;;;;;4958872;28;20038;-76
2022/05/25 12:37:11;;;;;;;2.17;0.70;;;24.30;99.90;;;;;;4976363;28;20030;-76
2022/05/25 12:39:43;;;;;;;2.45;0.60;;;24.30;99.90;;;;;;4976391;28;20031;-74
2022/05/25 12:42:23;;;;;;;2.90;0.90;;;24.00;99.90;;;;;;4976309;28;20022;-74
2022/05/25 12:50:38;;;;;;;7.45;0.60;;;24.00;99.90;;;;;;4976272;28;20077;-74
2022/05/25 12:53:38;;;;;;;1.30;0.60;;;23.70;99.90;;;;;;4976080;28;20090;-74
2022/05/25 12:56:05;;;;;;;3.47;0.68;;;23.30;99.90;;;;;;4976106;28;20031;-74
2022/05/25 12:58:40;;;;;;;2.65;0.38;;;23.70;99.90;;;;;;4976050;28;20051;-76
2022/05/25 13:01:39;;;;;;;3.72;0.45;;;23.70;99.90;;;;;;4976037;28;20113;-76
2022/05/25 13:04:18;;;;;;;1.23;0.35;;;24.20;99.90;;;;;;4976040;28;20451;-75
2022/05/25 13:06:43;;;;;;;4.28;0.57;;;23.80;99.90;;;;;;4975977;28;20514;-76
2022/05/25 13:09:28;;;;;;;3.05;0.40;;;23.80;99.90;;;;;;4975741;28;20030;-76
2022/05/25 13:11:58;;;;;;;1.88;0.60;;;24.20;99.90;;;;;;4975760;28;20034;-76
2022/05/25 13:14:24;;;;;;;1.38;0.47;;;24.40;99.90;;;;;;4975245;28;20026;-73
2022/05/25 13:16:54;;;;;;;2.47;0.30;;;24.90;99.90;;;;;;4975988;28;20362;-73
2022/05/25 13:19:39;;;;;;;;;;;24.80;99.90;;;;;;4976043;28;20043;-74
2022/05/25 13:22:22;;;;;;;3.58;0.55;;;24.50;99.90;;;;;;4975541;28;19917;-73
2022/05/25 13:25:02;;;;;;;2.53;0.40;;;23.70;99.90;;;;;;4975747;28;20033;-76
2022/05/25 13:28:02;;;;;;;3.17;0.68;;;23.80;99.90;;;;;;4975591;28;20634;-76
2022/05/25 13:30:34;;;;;;;3.45;0.70;;;23.60;99.90;;;;;;4980249;28;20046;-76
2022/05/25 13:33:04;;;;;;;5.30;0.65;;;23.30;99.90;;;;;;5014363;28;20041;-75
2022/05/25 13:35:44;;;;;;;3.17;0.85;;;23.50;99.90;;;;;;5014291;28;20072;-76
2022/05/25 13:38:28;;;;;;;3.65;0.60;;;23.60;99.90;;;;;;5014247;28;20481;-76
2022/05/25 13:41:16;;;;;;;2.17;0.55;;;23.40;99.90;;;;;;5014196;28;20516;-76
2022/05/25 13:44:02;;;;;;;2.40;0.60;;;23.30;99.90;;;;;;5013940;28;20477;-76
2022/05/25 13:46:54;;;;;;;2.17;0.50;;;23.50;99.90;;;;;;5014402;28;20117;-75
2022/05/25 13:49:32;;;;;;;3.53;0.65;;;22.80;99.90;;;;;;4975205;28;20054;-75